Time;durP1;ratioP1;P1;durP2;ratioP2;P2;SDS_P1;SDS_P2;PMS_P1;PMS_P2;Temp;Humidity;BMP_temperature;BMP_pressure;BME280_temperature;BME280_humidity;BME280_pressure;Samples;Min_cycle;Max_cycle;Signal;HPM_P1;HPM_P2
2023/06/04 00:02:27;;;;;;;0.10;0.10;;;;;;;11.24;54.61;97804.38;5044905;28;20099;-72
2023/06/04 00:04:54;;;;;;;0.10;0.10;;;;;;;11.23;54.36;97801.91;5046278;28;20099;-74
2023/06/04 00:07:23;;;;;;;0.10;0.10;;;;;;;11.54;53.24;97801.50;5039039;28;20432;-71
2023/06/04 00:09:53;;;;;;;0.10;0.10;;;;;;;11.23;54.47;97796.56;5049981;28;20055;-72
2023/06/04 00:12:20;;;;;;;0.15;0.15;;;;;;;11.05;54.70;97786.34;5026764;28;20409;-72
2023/06/04 00:14:48;;;;;;;0.20;0.20;;;;;;;11.00;54.75;97794.94;5049866;28;20049;-72
2023/06/04 00:17:15;;;;;;;0.15;0.15;;;;;;;11.06;54.93;97796.03;5031241;28;20041;-73
2023/06/04 00:19:43;;;;;;;0.10;0.10;;;;;;;10.92;55.70;97788.91;5056215;28;20048;-74
2023/06/04 00:22:10;;;;;;;0.20;0.20;;;;;;;10.69;56.47;97796.31;5047555;28;20080;-72
2023/06/04 00:24:41;;;;;;;0.20;0.20;;;;;;;10.63;56.52;97792.53;5041362;28;20048;-74
2023/06/04 00:27:10;;;;;;;0.30;0.30;;;;;;;10.56;56.82;97784.47;5041122;28;20060;-72
2023/06/04 00:29:37;;;;;;;0.10;0.10;;;;;;;10.57;56.60;97782.63;5029453;28;20135;-72
2023/06/04 00:32:06;;;;;;;0.10;0.10;;;;;;;10.53;56.55;97782.19;5054187;28;20447;-74
2023/06/04 00:34:33;;;;;;;0.20;0.20;;;;;;;10.53;56.34;97784.00;5041408;28;20052;-74
2023/06/04 00:37:02;;;;;;;0.20;0.20;;;;;;;10.39;57.02;97779.53;5024652;28;20402;-72
2023/06/04 00:39:35;;;;;;;0.10;0.10;;;;;;;10.29;57.59;97782.50;5039927;28;20075;-74
2023/06/04 00:42:04;;;;;;;0.30;0.30;;;;;;;10.17;57.84;97784.00;5025166;28;20045;-73
2023/06/04 00:44:33;;;;;;;0.10;0.10;;;;;;;10.05;58.42;97778.31;5025260;28;20046;-73
2023/06/04 00:47:01;;;;;;;0.28;0.28;;;;;;;9.94;58.66;97774.28;5044899;28;20044;-73
2023/06/04 00:49:28;;;;;;;0.20;0.20;;;;;;;9.85;58.57;97783.41;5023500;28;20046;-73
2023/06/04 00:51:56;;;;;;;0.13;0.13;;;;;;;9.82;58.69;97775.78;5047467;28;20047;-74
2023/06/04 00:54:24;;;;;;;0.20;0.20;;;;;;;9.96;57.88;97786.63;5027525;28;20072;-74
2023/06/04 00:56:52;;;;;;;0.10;0.10;;;;;;;9.89;58.36;97782.00;5023094;28;20488;-74
2023/06/04 00:59:21;;;;;;;0.20;0.20;;;;;;;9.99;57.79;97783.56;5016843;28;20053;-74
2023/06/04 01:01:51;;;;;;;0.15;0.15;;;;;;;10.00;57.72;97777.22;5044009;28;20040;-72
2023/06/04 01:04:22;;;;;;;0.20;0.20;;;;;;;9.95;58.16;97785.78;5043408;28;20044;-74
2023/06/04 01:06:51;;;;;;;0.10;0.10;;;;;;;9.90;58.25;97782.84;5021488;28;20670;-74
2023/06/04 01:09:19;;;;;;;0.17;0.17;;;;;;;9.81;58.62;97784.78;5029406;28;20045;-74
2023/06/04 01:11:46;;;;;;;0.20;0.20;;;;;;;9.68;59.02;97783.78;5023899;28;20076;-74
2023/06/04 01:14:15;;;;;;;0.17;0.17;;;;;;;9.71;58.32;97781.56;5053712;28;20416;-72
2023/06/04 01:16:48;;;;;;;0.22;0.22;;;;;;;9.86;58.04;97779.72;5043259;28;20428;-74
2023/06/04 01:19:32;;;;;;;0.30;0.30;;;;;;;9.70;58.62;97774.59;5023798;28;20500;-73
2023/06/04 01:22:04;;;;;;;0.30;0.30;;;;;;;9.98;57.22;97785.41;5023938;28;20069;-73
2023/06/04 01:24:36;;;;;;;0.17;0.17;;;;;;;9.92;57.90;97778.16;5051242;28;20051;-74
2023/06/04 01:27:05;;;;;;;0.13;0.13;;;;;;;9.88;57.88;97782.19;5028289;28;20500;-73
2023/06/04 01:29:36;;;;;;;0.15;0.15;;;;;;;9.66;58.89;97777.78;5034343;28;20481;-74
2023/06/04 01:32:06;;;;;;;0.20;0.20;;;;;;;9.50;59.73;97774.31;5044692;28;20044;-72
2023/06/04 01:34:44;;;;;;;0.13;0.13;;;;;;;9.35;60.25;97769.97;5036396;28;20041;-72
2023/06/04 01:37:12;;;;;;;;;;;;;;;9.31;60.46;97774.84;5023085;28;20137;-72
2023/06/04 01:39:40;;;;;;;0.20;0.20;;;;;;;9.11;61.05;97779.06;5042633;28;19943;-74
2023/06/04 01:42:09;;;;;;;0.13;0.13;;;;;;;9.00;61.34;97782.16;5036834;28;20037;-73
2023/06/04 01:44:37;;;;;;;0.30;0.30;;;;;;;8.82;61.74;97777.94;5033281;28;20051;-72
2023/06/04 01:47:07;;;;;;;0.20;0.20;;;;;;;8.80;61.84;97787.13;5032095;28;20128;-72
2023/06/04 01:49:37;;;;;;;0.10;0.10;;;;;;;8.71;62.04;97791.69;5023175;28;20512;-74
2023/06/04 01:52:06;;;;;;;0.10;0.10;;;;;;;8.78;60.77;97787.31;5026124;28;20044;-73
2023/06/04 01:54:34;;;;;;;0.20;0.20;;;;;;;8.85;61.25;97792.75;5016818;28;20056;-72
2023/06/04 01:57:03;;;;;;;0.20;0.15;;;;;;;8.91;60.56;97785.88;5046961;28;20411;-72
2023/06/04 01:59:31;;;;;;;0.10;0.10;;;;;;;8.90;60.72;97785.06;5022222;28;20084;-72
2023/06/04 02:02:01;;;;;;;0.20;0.20;;;;;;;8.95;60.51;97790.66;5021734;28;20052;-72
2023/06/04 02:04:30;;;;;;;0.13;0.13;;;;;;;8.99;60.33;97791.97;5030148;28;20048;-74
2023/06/04 02:06:59;;;;;;;0.20;0.20;;;;;;;8.91;60.77;97791.22;5041803;28;20037;-72
2023/06/04 02:09:27;;;;;;;0.20;0.20;;;;;;;8.90;60.96;97792.22;5037548;28;20041;-73
2023/06/04 02:11:54;;;;;;;0.20;0.20;;;;;;;8.65;61.54;97795.06;5022976;28;20112;-74
2023/06/04 02:14:22;;;;;;;0.20;0.20;;;;;;;8.66;61.45;97795.88;5045848;28;20041;-74
2023/06/04 02:16:50;;;;;;;0.10;0.10;;;;;;;8.61;61.82;97782.31;5028345;28;20033;-71
2023/06/04 02:19:19;;;;;;;0.20;0.20;;;;;;;8.61;62.07;97792.94;5028455;28;20539;-73
2023/06/04 02:21:47;;;;;;;0.20;0.20;;;;;;;8.64;61.87;97797.88;5025049;28;20133;-72
2023/06/04 02:24:15;;;;;;;0.20;0.20;;;;;;;8.67;62.00;97793.06;5025185;28;20412;-72
2023/06/04 02:26:43;;;;;;;0.13;0.13;;;;;;;8.70;61.97;97799.84;5044179;28;20534;-72
2023/06/04 02:29:10;;;;;;;0.15;0.15;;;;;;;8.64;61.96;97800.53;5032082;28;20503;-72
2023/06/04 02:31:38;;;;;;;0.22;0.22;;;;;;;8.68;61.49;97801.84;5026999;28;20049;-72
2023/06/04 02:34:05;;;;;;;0.20;0.20;;;;;;;8.85;60.60;97798.06;5035007;28;20052;-72
2023/06/04 02:36:33;;;;;;;0.20;0.20;;;;;;;8.51;62.15;97793.19;5033081;28;20071;-72
2023/06/04 02:39:02;;;;;;;0.20;0.20;;;;;;;8.44;62.48;97798.34;5045976;28;20041;-72
2023/06/04 02:41:30;;;;;;;0.15;0.15;;;;;;;8.41;62.64;97793.38;5048641;28;20033;-72
2023/06/04 02:43:57;;;;;;;0.10;0.10;;;;;;;8.36;62.71;97813.53;5051534;28;20038;-72
2023/06/04 02:46:25;;;;;;;0.10;0.10;;;;;;;8.34;62.90;97811.06;5055668;28;20041;-72
2023/06/04 02:48:53;;;;;;;0.20;0.20;;;;;;;8.25;63.06;97812.06;5048620;23;20488;-70
2023/06/04 02:51:21;;;;;;;0.20;0.20;;;;;;;8.25;63.10;97809.41;5053322;28;20102;-70
2023/06/04 02:53:48;;;;;;;0.20;0.20;;;;;;;8.20;62.79;97813.63;5032158;28;20503;-71
2023/06/04 02:56:17;;;;;;;0.20;0.20;;;;;;;8.16;63.21;97815.78;5036009;28;20480;-70
2023/06/04 02:58:52;;;;;;;0.10;0.10;;;;;;;8.16;63.10;97807.81;5030376;28;20127;-70
2023/06/04 03:01:20;;;;;;;0.10;0.10;;;;;;;7.94;63.97;97803.25;5031658;28;20053;-70
2023/06/04 03:03:49;;;;;;;0.10;0.10;;;;;;;8.02;63.54;97814.66;5033789;28;20118;-70
2023/06/04 03:06:18;;;;;;;0.10;0.10;;;;;;;7.91;64.09;97809.72;5050888;28;20040;-70
2023/06/04 03:08:45;;;;;;;0.20;0.20;;;;;;;7.92;64.28;97810.56;5033881;28;20041;-70
2023/06/04 03:11:13;;;;;;;0.10;0.10;;;;;;;8.08;63.28;97818.47;5043262;28;20526;-71
2023/06/04 03:13:42;;;;;;;0.13;0.13;;;;;;;8.12;63.30;97814.47;5052960;28;20491;-70
2023/06/04 03:16:10;;;;;;;0.20;0.20;;;;;;;8.01;63.59;97821.00;5029978;28;20041;-70
2023/06/04 03:18:38;;;;;;;0.20;0.20;;;;;;;8.00;63.77;97824.63;5045515;28;20524;-69
2023/06/04 03:21:06;;;;;;;0.20;0.20;;;;;;;8.01;63.63;97825.47;5051531;28;20459;-70
2023/06/04 03:23:34;;;;;;;0.10;0.10;;;;;;;7.96;63.92;97830.50;5050523;28;20041;-70
2023/06/04 03:26:02;;;;;;;0.20;0.20;;;;;;;7.89;63.75;97826.88;5029618;28;20079;-70
2023/06/04 03:28:31;;;;;;;0.17;0.17;;;;;;;7.69;64.72;97834.38;5038276;28;20044;-70
2023/06/04 03:31:02;;;;;;;0.17;0.17;;;;;;;7.67;64.86;97828.44;5029877;28;20037;-71
2023/06/04 03:33:29;;;;;;;0.20;0.20;;;;;;;7.68;64.42;97828.25;5035150;28;20041;-70
2023/06/04 03:35:58;;;;;;;0.20;0.20;;;;;;;7.87;64.28;97826.22;5052596;28;20037;-70
2023/06/04 03:38:26;;;;;;;0.10;0.10;;;;;;;7.84;64.41;97821.22;5048495;28;20424;-71
2023/06/04 03:40:54;;;;;;;0.20;0.20;;;;;;;7.95;63.71;97831.50;5025840;28;20041;-70
2023/06/04 03:43:22;;;;;;;0.03;0.03;;;;;;;7.85;64.07;97828.22;5031869;28;20056;-70
2023/06/04 03:45:53;;;;;;;0.13;0.13;;;;;;;7.69;64.73;97832.56;5031687;28;20464;-70
2023/06/04 03:48:23;;;;;;;0.20;0.20;;;;;;;7.69;64.89;97829.06;5028512;28;20123;-71
2023/06/04 03:50:51;;;;;;;0.10;0.10;;;;;;;7.60;65.05;97841.56;5027011;28;20049;-70
2023/06/04 03:53:19;;;;;;;0.20;0.20;;;;;;;7.66;64.85;97834.75;5029775;28;20084;-71
2023/06/04 03:55:47;;;;;;;0.20;0.20;;;;;;;7.68;64.81;97838.06;5027590;28;20111;-70
2023/06/04 03:58:15;;;;;;;0.20;0.20;;;;;;;7.75;64.74;97833.72;5043008;28;20411;-71
2023/06/04 04:00:47;;;;;;;0.15;0.15;;;;;;;7.85;64.15;97829.03;5042394;28;20514;-70
2023/06/04 04:03:17;;;;;;;0.30;0.30;;;;;;;7.66;65.12;97827.59;5031869;28;20459;-70
2023/06/04 04:05:47;;;;;;;0.10;0.10;;;;;;;7.72;64.66;97829.56;5034750;28;20068;-70
2023/06/04 04:08:16;;;;;;;0.10;0.10;;;;;;;7.70;64.71;97836.88;5025597;28;20133;-70
2023/06/04 04:10:44;;;;;;;0.10;0.10;;;;;;;7.79;64.62;97844.84;5035315;28;20048;-70
2023/06/04 04:13:12;;;;;;;0.20;0.20;;;;;;;7.80;64.77;97842.00;5048817;28;20055;-70
2023/06/04 04:15:41;;;;;;;0.15;0.15;;;;;;;7.80;64.61;97831.38;5031767;28;20049;-70
2023/06/04 04:18:10;;;;;;;0.20;0.20;;;;;;;7.89;64.17;97837.50;5045598;28;20120;-69
2023/06/04 04:20:38;;;;;;;0.30;0.30;;;;;;;7.82;64.38;97847.13;5036487;28;20056;-69
2023/06/04 04:23:11;;;;;;;0.20;0.20;;;;;;;7.94;63.78;97841.28;5029266;28;20124;-69
2023/06/04 04:25:43;;;;;;;0.20;0.20;;;;;;;7.90;63.97;97833.81;5030385;28;20037;-71
2023/06/04 04:28:12;;;;;;;0.20;0.20;;;;;;;7.82;64.16;97833.84;5049242;28;20030;-71
2023/06/04 04:30:41;;;;;;;0.10;0.10;;;;;;;7.88;64.20;97827.88;5034814;28;20451;-70
2023/06/04 04:33:10;;;;;;;0.10;0.10;;;;;;;7.98;63.54;97828.50;5039236;28;20041;-71
2023/06/04 04:35:44;;;;;;;0.10;0.10;;;;;;;8.19;63.10;97825.25;5036751;28;20055;-69
2023/06/04 04:38:17;;;;;;;0.10;0.10;;;;;;;8.24;62.94;97823.72;5049539;28;20499;-70
2023/06/04 04:40:51;;;;;;;0.20;0.20;;;;;;;8.22;62.95;97830.19;5033414;28;20051;-70
2023/06/04 04:43:28;;;;;;;0.20;0.20;;;;;;;8.24;62.95;97831.69;5033035;28;20037;-70
2023/06/04 04:45:56;;;;;;;0.10;0.10;;;;;;;8.24;62.95;97831.69;5023863;28;20407;-70
2023/06/04 04:48:25;;;;;;;0.15;0.15;;;;;;;8.18;63.29;97835.06;5044640;28;20046;-70
2023/06/04 04:50:52;;;;;;;0.20;0.20;;;;;;;8.08;64.07;97829.13;5024453;28;20414;-71
2023/06/04 04:53:21;;;;;;;0.20;0.20;;;;;;;8.04;64.27;97833.94;5029821;28;20041;-70
2023/06/04 04:55:49;;;;;;;0.15;0.15;;;;;;;8.15;63.97;97830.06;5027623;28;20500;-70
2023/06/04 04:58:18;;;;;;;0.20;0.20;;;;;;;8.24;63.61;97823.72;5047204;28;20033;-69
2023/06/04 05:00:47;;;;;;;0.20;0.20;;;;;;;8.34;63.46;97832.31;5028246;28;20048;-69
2023/06/04 05:03:15;;;;;;;0.10;0.10;;;;;;;8.39;63.12;97835.31;5049586;28;20053;-70
2023/06/04 05:05:44;;;;;;;0.10;0.10;;;;;;;8.46;62.90;97835.41;5032105;28;20110;-70
2023/06/04 05:08:13;;;;;;;0.20;0.20;;;;;;;8.54;62.80;97835.38;5028567;28;20068;-70
2023/06/04 05:10:44;;;;;;;0.22;0.22;;;;;;;8.65;62.51;97826.97;5031071;28;20202;-69
2023/06/04 05:13:12;;;;;;;0.28;0.28;;;;;;;8.73;62.29;97837.56;5031062;28;20132;-70
2023/06/04 05:15:47;;;;;;;0.20;0.20;;;;;;;8.88;61.93;97834.97;5028865;28;20045;-70
2023/06/04 05:18:20;;;;;;;0.13;0.13;;;;;;;9.01;61.60;97837.88;5026901;28;20049;-70
2023/06/04 05:20:49;;;;;;;0.30;0.30;;;;;;;9.05;61.45;97835.66;5031613;28;20048;-70
2023/06/04 05:23:17;;;;;;;0.08;0.08;;;;;;;9.18;61.03;97833.22;5027705;28;20492;-69
2023/06/04 05:25:50;;;;;;;0.30;0.30;;;;;;;9.29;60.50;97837.28;5027401;28;20155;-70
2023/06/04 05:28:20;;;;;;;0.20;0.20;;;;;;;9.40;60.17;97839.53;5027001;28;20077;-70
2023/06/04 05:30:48;;;;;;;0.13;0.13;;;;;;;9.50;60.07;97837.44;5032651;28;20187;-70
2023/06/04 05:33:18;;;;;;;0.20;0.20;;;;;;;9.63;59.61;97847.47;5025274;28;20102;-70
2023/06/04 05:35:53;;;;;;;0.28;0.28;;;;;;;9.78;59.46;97845.63;5036566;28;20069;-70
2023/06/04 05:38:25;;;;;;;0.20;0.20;;;;;;;9.86;59.19;97845.56;5030135;28;20141;-70
2023/06/04 05:40:55;;;;;;;0.20;0.20;;;;;;;9.99;58.88;97842.22;5023412;28;20527;-71
2023/06/04 05:43:25;;;;;;;0.20;0.20;;;;;;;10.12;58.78;97839.75;5023372;28;20048;-71
2023/06/04 05:45:54;;;;;;;0.10;0.10;;;;;;;10.20;58.36;97845.00;5025859;28;20562;-72
2023/06/04 05:48:21;;;;;;;0.10;0.10;;;;;;;10.30;57.71;97846.34;5045386;28;20041;-70
2023/06/04 05:50:49;;;;;;;0.10;0.10;;;;;;;10.42;57.15;97837.88;5032370;28;20076;-71
2023/06/04 05:53:17;;;;;;;0.13;0.13;;;;;;;10.53;57.03;97853.41;5027536;28;20076;-71
2023/06/04 05:55:47;;;;;;;0.30;0.30;;;;;;;10.60;57.16;97847.13;5018916;28;20447;-71
2023/06/04 05:58:16;;;;;;;0.20;0.20;;;;;;;10.71;56.72;97842.28;5029180;28;20123;-69
2023/06/04 06:00:44;;;;;;;0.20;0.20;;;;;;;10.71;56.90;97844.97;5030298;28;20044;-70
2023/06/04 06:03:11;;;;;;;0.17;0.17;;;;;;;10.77;56.75;97846.91;5029033;28;20041;-70
2023/06/04 06:05:44;;;;;;;0.30;0.30;;;;;;;10.91;56.58;97843.31;5027682;28;20148;-71
2023/06/04 06:08:12;;;;;;;0.20;0.20;;;;;;;10.99;56.66;97845.91;5034721;28;20053;-70
2023/06/04 06:10:39;;;;;;;0.20;0.20;;;;;;;11.12;55.84;97854.00;5024933;28;20074;-70
2023/06/04 06:13:07;;;;;;;0.20;0.20;;;;;;;11.21;55.90;97852.84;5027629;28;20075;-69
2023/06/04 06:15:36;;;;;;;0.10;0.10;;;;;;;11.29;55.21;97854.59;5022922;28;20453;-70
2023/06/04 06:18:04;;;;;;;0.20;0.20;;;;;;;11.39;55.05;97863.94;5034435;28;20056;-70
2023/06/04 06:20:32;;;;;;;0.20;0.20;;;;;;;11.54;54.47;97860.31;5029075;28;20038;-71
2023/06/04 06:23:06;;;;;;;0.10;0.10;;;;;;;11.66;54.29;97861.44;5029034;28;20408;-70
2023/06/04 06:25:36;;;;;;;0.20;0.20;;;;;;;11.76;54.29;97862.78;5020755;28;20056;-71
2023/06/04 06:28:10;;;;;;;0.20;0.20;;;;;;;11.94;53.86;97858.81;5029373;28;20049;-70
2023/06/04 06:30:39;;;;;;;0.20;0.20;;;;;;;12.14;53.77;97865.09;5031718;28;20152;-71
2023/06/04 06:33:08;;;;;;;0.20;0.20;;;;;;;12.32;53.38;97865.38;5044409;28;20412;-71
2023/06/04 06:35:35;;;;;;;0.20;0.20;;;;;;;12.44;53.52;97868.31;5048745;28;20147;-70
2023/06/04 06:38:03;;;;;;;0.10;0.10;;;;;;;12.42;53.02;97862.34;5048189;28;20040;-71
2023/06/04 06:40:31;;;;;;;0.10;0.10;;;;;;;12.51;53.48;97871.84;5047866;28;20399;-71
2023/06/04 06:42:58;;;;;;;0.20;0.20;;;;;;;12.69;53.57;97876.63;5048162;28;20134;-71
2023/06/04 06:45:26;;;;;;;0.00;0.00;;;;;;;12.90;53.09;97878.34;5046204;28;20041;-72
2023/06/04 06:47:55;;;;;;;0.10;0.10;;;;;;;13.03;53.02;97878.38;5047810;28;20216;-72
2023/06/04 06:50:22;;;;;;;0.20;0.20;;;;;;;13.15;52.46;97884.84;5045575;28;20066;-71
2023/06/04 06:52:50;;;;;;;0.10;0.10;;;;;;;13.29;52.68;97874.97;5044323;28;20227;-72
2023/06/04 06:55:17;;;;;;;0.22;0.22;;;;;;;13.57;52.38;97889.84;5016599;28;20060;-72
2023/06/04 06:57:45;;;;;;;0.20;0.20;;;;;;;13.80;52.16;97880.53;5047850;28;20037;-71
2023/06/04 07:00:13;;;;;;;0.20;0.20;;;;;;;13.93;51.49;97885.88;5042503;28;20124;-71
2023/06/04 07:02:41;;;;;;;0.10;0.10;;;;;;;14.07;50.62;97884.00;5047540;28;20502;-72
2023/06/04 07:05:11;;;;;;;0.20;0.20;;;;;;;14.24;49.57;97877.13;5042898;28;20154;-71
2023/06/04 07:07:39;;;;;;;0.20;0.20;;;;;;;14.38;48.95;97878.75;5046105;28;20042;-72
2023/06/04 07:10:07;;;;;;;0.20;0.20;;;;;;;14.53;48.98;97875.84;5040766;28;20065;-71
2023/06/04 07:12:34;;;;;;;0.10;0.10;;;;;;;14.49;47.15;97877.31;5047261;28;20037;-71
2023/06/04 07:15:02;;;;;;;0.10;0.10;;;;;;;14.70;46.25;97877.00;5056817;28;20048;-71
2023/06/04 07:17:30;;;;;;;0.10;0.10;;;;;;;14.86;45.64;97886.44;5057446;28;20043;-71
2023/06/04 07:19:57;;;;;;;0.13;0.13;;;;;;;15.03;45.81;97877.66;5047664;28;20087;-71
2023/06/04 07:22:26;;;;;;;0.10;0.10;;;;;;;15.12;45.73;97880.09;5049047;28;20037;-71
2023/06/04 07:24:54;;;;;;;0.10;0.10;;;;;;;15.33;46.50;97871.69;5047313;28;20096;-71
2023/06/04 07:27:22;;;;;;;0.20;0.20;;;;;;;15.55;45.57;97869.47;5050921;28;20041;-71
2023/06/04 07:29:49;;;;;;;0.20;0.20;;;;;;;15.81;45.99;97871.09;5049095;28;20037;-71
2023/06/04 07:32:17;;;;;;;0.20;0.20;;;;;;;15.96;44.74;97860.84;5051760;28;20049;-71
2023/06/04 07:34:45;;;;;;;0.13;0.13;;;;;;;16.24;43.86;97868.41;5050358;28;20124;-71
2023/06/04 07:37:13;;;;;;;0.17;0.17;;;;;;;16.17;43.92;97867.66;5047381;28;20049;-71
2023/06/04 07:39:42;;;;;;;0.20;0.20;;;;;;;16.43;43.33;97865.50;5046905;28;20039;-71
2023/06/04 07:42:10;;;;;;;0.17;0.17;;;;;;;16.65;43.23;97865.06;5048019;28;20037;-71
2023/06/04 07:44:38;;;;;;;0.10;0.10;;;;;;;16.83;42.03;97856.94;5051630;28;20137;-71
2023/06/04 07:47:06;;;;;;;0.20;0.20;;;;;;;17.00;40.75;97854.44;5043921;28;20131;-71
2023/06/04 07:49:33;;;;;;;0.10;0.10;;;;;;;17.20;40.25;97846.88;5050313;28;20051;-71
2023/06/04 07:52:01;;;;;;;0.10;0.10;;;;;;;17.28;39.62;97846.53;5048352;28;20037;-71
2023/06/04 07:54:29;;;;;;;0.10;0.10;;;;;;;17.44;39.07;97848.56;5047082;28;20037;-71
2023/06/04 07:56:58;;;;;;;0.10;0.10;;;;;;;17.73;38.35;97851.47;5051127;28;20518;-72
2023/06/04 07:59:25;;;;;;;0.30;0.15;;;;;;;17.98;37.53;97849.34;5048904;28;20132;-72
2023/06/04 08:01:53;;;;;;;0.20;0.20;;;;;;;18.24;36.41;97859.66;5049497;28;20642;-71
2023/06/04 08:04:20;;;;;;;0.13;0.13;;;;;;;18.36;35.79;97843.44;5047882;28;20060;-70
2023/06/04 08:06:49;;;;;;;0.10;0.10;;;;;;;18.56;36.11;97856.56;5040397;28;20052;-70
2023/06/04 08:09:17;;;;;;;0.10;0.10;;;;;;;18.76;34.61;97848.06;5049556;28;20127;-70
2023/06/04 08:11:45;;;;;;;0.10;0.10;;;;;;;18.95;35.09;97849.50;5047355;28;20052;-70
2023/06/04 08:14:14;;;;;;;0.10;0.10;;;;;;;19.12;34.68;97849.53;5044893;28;20041;-70
2023/06/04 08:16:42;;;;;;;0.10;0.10;;;;;;;18.84;35.70;97851.19;5041692;28;20047;-70
2023/06/04 08:19:09;;;;;;;0.20;0.20;;;;;;;18.94;35.46;97859.50;5048865;28;20036;-70
2023/06/04 08:21:37;;;;;;;0.10;0.10;;;;;;;19.09;35.29;97856.28;5042852;28;20030;-70
2023/06/04 08:24:05;;;;;;;0.13;0.10;;;;;;;19.20;35.33;97866.25;5050411;28;20051;-70
2023/06/04 08:26:32;;;;;;;0.10;0.10;;;;;;;19.40;34.18;97857.66;5047823;28;20128;-69
2023/06/04 08:29:03;;;;;;;0.10;0.10;;;;;;;19.54;33.27;97850.03;5045654;28;20392;-69
2023/06/04 08:31:32;;;;;;;0.10;0.10;;;;;;;19.83;33.45;97853.50;5047663;28;20037;-70
2023/06/04 08:34:00;;;;;;;0.10;0.10;;;;;;;19.87;32.05;97860.88;5051007;28;20041;-70
2023/06/04 08:36:32;;;;;;;0.17;0.17;;;;;;;19.91;32.08;97859.34;5044458;28;20037;-70
2023/06/04 08:39:01;;;;;;;0.20;0.20;;;;;;;20.14;31.76;97859.13;5043483;28;20051;-70
2023/06/04 08:41:29;;;;;;;0.10;0.10;;;;;;;20.10;31.46;97863.41;5050806;28;20047;-70
2023/06/04 08:43:58;;;;;;;0.10;0.10;;;;;;;20.42;31.18;97865.50;5043787;28;20378;-69
2023/06/04 08:46:29;;;;;;;0.03;0.03;;;;;;;20.67;30.31;97871.25;5042983;28;20041;-69
2023/06/04 08:49:01;;;;;;;0.20;0.10;;;;;;;20.37;30.94;97868.13;5019363;28;20052;-69
2023/06/04 08:51:28;;;;;;;;;;;;;;;20.54;30.29;97865.41;5049884;23;20042;-75
2023/06/04 08:53:57;;;;;;;0.00;0.00;;;;;;;20.59;31.16;97865.44;5030428;28;19935;-74
2023/06/04 08:56:25;;;;;;;0.10;0.10;;;;;;;20.85;30.99;97865.53;5032202;28;20084;-74
2023/06/04 08:58:53;;;;;;;0.03;0.03;;;;;;;21.12;31.32;97867.44;5031209;28;20057;-75
2023/06/04 09:01:21;;;;;;;0.20;0.10;;;;;;;21.17;30.85;97873.75;5029212;28;20048;-75
2023/06/04 09:03:49;;;;;;;0.10;0.10;;;;;;;21.17;30.32;97868.31;5029773;28;20046;-74
2023/06/04 09:06:18;;;;;;;0.10;0.10;;;;;;;21.15;30.64;97865.03;5015648;28;20100;-74
2023/06/04 09:08:46;;;;;;;0.10;0.10;;;;;;;21.45;30.30;97864.53;5016641;28;20109;-74
2023/06/04 09:11:25;;;;;;;0.10;0.10;;;;;;;21.51;30.10;97873.53;5033025;28;20038;-75
2023/06/04 09:13:53;;;;;;;0.10;0.10;;;;;;;21.35;29.40;97867.16;5023738;28;20045;-74
2023/06/04 09:16:21;;;;;;;0.10;0.10;;;;;;;21.34;29.54;97862.81;5031126;28;20041;-75
2023/06/04 09:18:49;;;;;;;0.05;0.05;;;;;;;21.28;29.95;97863.03;5023028;28;20520;-74
2023/06/04 09:21:19;;;;;;;0.03;0.03;;;;;;;21.66;30.08;97872.88;5031024;28;20047;-75
2023/06/04 09:23:47;;;;;;;0.00;0.00;;;;;;;21.63;29.54;97870.66;5031624;28;20419;-75
2023/06/04 09:26:15;;;;;;;0.10;0.10;;;;;;;21.68;28.81;97866.09;5023561;28;20049;-74
2023/06/04 09:28:44;;;;;;;0.00;0.00;;;;;;;21.56;30.03;97876.31;5020170;28;20046;-74
2023/06/04 09:31:15;;;;;;;0.10;0.10;;;;;;;21.85;29.30;97866.78;5031390;28;20038;-75
2023/06/04 09:33:44;;;;;;;0.10;0.10;;;;;;;21.78;29.68;97871.63;5027809;28;20042;-75
2023/06/04 09:36:12;;;;;;;0.08;0.08;;;;;;;22.01;29.13;97878.59;5031039;28;20049;-74
2023/06/04 09:38:41;;;;;;;0.10;0.10;;;;;;;22.20;28.54;97876.31;5027075;28;20049;-74
2023/06/04 09:41:13;;;;;;;0.00;0.00;;;;;;;22.44;27.92;97874.81;5010526;28;20124;-74
2023/06/04 09:43:41;;;;;;;0.10;0.10;;;;;;;22.59;27.98;97874.91;5011376;28;20068;-76
2023/06/04 09:46:10;;;;;;;0.00;0.00;;;;;;;22.51;28.64;97878.13;5013894;28;20048;-75
2023/06/04 09:48:38;;;;;;;0.10;0.10;;;;;;;22.65;28.09;97879.28;5029179;28;20480;-75
2023/06/04 09:51:10;;;;;;;0.05;0.05;;;;;;;22.67;27.87;97868.94;5026619;28;20067;-75
2023/06/04 09:53:38;;;;;;;0.08;0.08;;;;;;;22.78;28.05;97866.28;5022991;28;20606;-74
2023/06/04 09:56:07;;;;;;;0.00;0.00;;;;;;;22.90;27.38;97872.34;5031091;28;20293;-74
2023/06/04 09:58:35;;;;;;;0.03;0.03;;;;;;;22.81;27.38;97872.03;5025348;28;20496;-75
2023/06/04 10:01:05;;;;;;;0.00;0.00;;;;;;;22.68;27.54;97867.03;5023907;28;20147;-75
2023/06/04 10:03:34;;;;;;;0.00;0.00;;;;;;;22.87;27.56;97870.94;5026069;28;20176;-75
2023/06/04 10:06:04;;;;;;;0.08;0.08;;;;;;;23.20;27.60;97877.06;5029352;28;20120;-74
2023/06/04 10:08:32;;;;;;;0.10;0.05;;;;;;;22.34;27.90;97878.28;5031174;28;20404;-74
2023/06/04 10:11:01;;;;;;;0.10;0.10;;;;;;;22.51;27.72;97867.25;5024724;28;20831;-75
2023/06/04 10:13:31;;;;;;;0.10;0.10;;;;;;;22.79;28.00;97871.47;5036141;28;20042;-74
2023/06/04 10:15:59;;;;;;;0.10;0.10;;;;;;;23.11;28.02;97870.50;5030833;28;20041;-75
2023/06/04 10:18:29;;;;;;;0.10;0.10;;;;;;;22.95;27.98;97864.16;5015123;28;20415;-76
2023/06/04 10:20:57;;;;;;;0.03;0.03;;;;;;;22.52;27.34;97862.63;5024944;28;20400;-75
2023/06/04 10:23:25;;;;;;;0.10;0.10;;;;;;;22.30;27.90;97865.50;5011502;28;20037;-73
2023/06/04 10:25:53;;;;;;;0.10;0.10;;;;;;;22.76;27.78;97863.00;5013771;28;20359;-76
2023/06/04 10:28:23;;;;;;;0.00;0.00;;;;;;;23.23;27.08;97868.34;5030588;28;20041;-75
2023/06/04 10:30:51;;;;;;;0.10;0.10;;;;;;;23.20;27.41;97864.25;5022040;28;20069;-73
2023/06/04 10:33:24;;;;;;;0.10;0.10;;;;;;;23.35;27.30;97864.28;5029628;28;20044;-76
2023/06/04 10:35:54;;;;;;;0.15;0.15;;;;;;;23.63;27.10;97864.88;5030828;28;20038;-74
2023/06/04 10:38:22;;;;;;;0.08;0.08;;;;;;;23.41;27.59;97860.47;5023266;28;20048;-74
2023/06/04 10:40:49;;;;;;;0.08;0.08;;;;;;;23.71;26.92;97858.88;5029090;28;20049;-74
2023/06/04 10:43:17;;;;;;;0.00;0.00;;;;;;;23.87;26.45;97855.09;5022622;28;20042;-74
2023/06/04 10:45:45;;;;;;;0.00;0.00;;;;;;;23.22;27.38;97859.34;5030510;28;20041;-75
2023/06/04 10:48:14;;;;;;;0.10;0.10;;;;;;;23.30;27.60;97852.56;5014459;28;20056;-75
2023/06/04 10:50:50;;;;;;;0.00;0.00;;;;;;;23.77;27.27;97850.44;5034624;28;20113;-75
2023/06/04 10:53:18;;;;;;;0.10;0.10;;;;;;;23.93;26.61;97850.44;5029205;28;20037;-74
2023/06/04 10:55:46;;;;;;;0.10;0.10;;;;;;;24.26;26.55;97855.31;5033784;28;20141;-76
2023/06/04 10:58:15;;;;;;;0.00;0.00;;;;;;;24.30;26.40;97852.84;5027992;28;20046;-75
2023/06/04 11:00:45;;;;;;;0.00;0.00;;;;;;;24.18;26.34;97853.13;5022209;28;20382;-75
2023/06/04 11:03:14;;;;;;;0.00;0.00;;;;;;;24.45;26.06;97855.53;5030213;28;20038;-75
2023/06/04 11:05:43;;;;;;;0.10;0.10;;;;;;;24.66;26.70;97857.13;5025567;28;20042;-74
2023/06/04 11:08:13;;;;;;;0.10;0.10;;;;;;;24.50;26.10;97847.34;5032058;28;20049;-75
2023/06/04 11:10:42;;;;;;;0.10;0.10;;;;;;;24.37;26.06;97842.47;5026734;28;20107;-74
2023/06/04 11:13:10;;;;;;;0.00;0.00;;;;;;;24.40;26.21;97845.44;5034063;28;20120;-75
2023/06/04 11:15:41;;;;;;;0.00;0.00;;;;;;;24.58;26.13;97849.50;5032512;28;20457;-75
2023/06/04 11:18:09;;;;;;;;;;;;;;;25.01;25.29;97852.63;5014451;28;20574;-75
2023/06/04 11:20:38;;;;;;;0.05;0.05;;;;;;;25.14;24.94;97850.06;5032905;28;19921;-75
2023/06/04 11:23:06;;;;;;;0.20;0.20;;;;;;;24.54;26.06;97839.41;5033948;28;20038;-76
2023/06/04 11:25:34;;;;;;;0.10;0.10;;;;;;;24.86;25.33;97846.09;5029621;28;20492;-77
2023/06/04 11:28:02;;;;;;;0.10;0.10;;;;;;;24.60;25.81;97841.03;5033667;28;20045;-76
2023/06/04 11:30:30;;;;;;;0.00;0.00;;;;;;;24.67;25.80;97850.56;5033487;28;20527;-76
2023/06/04 11:33:01;;;;;;;0.00;0.00;;;;;;;24.25;26.25;97837.31;5031230;28;20041;-76
2023/06/04 11:35:29;;;;;;;0.00;0.00;;;;;;;24.39;26.13;97838.38;5030046;28;20091;-76
2023/06/04 11:37:59;;;;;;;0.00;0.00;;;;;;;24.84;25.76;97836.56;5026705;28;20038;-76
2023/06/04 11:40:27;;;;;;;0.10;0.05;;;;;;;25.14;25.76;97833.69;5027600;28;20042;-76
2023/06/04 11:42:55;;;;;;;0.10;0.10;;;;;;;25.37;25.02;97828.63;5007849;28;20331;-76
2023/06/04 11:45:23;;;;;;;0.00;0.00;;;;;;;25.00;25.67;97826.41;5030930;28;20096;-77